Time;durP1;ratioP1;P1;durP2;ratioP2;P2;SDS_P1;SDS_P2;PMS_P1;PMS_P2;Temp;Humidity;BMP_temperature;BMP_pressure;BME280_temperature;BME280_humidity;BME280_pressure;Samples;Min_cycle;Max_cycle;Signal;HPM_P1;HPM_P2
2022/03/03 00:01:32;;;;;;;;;;;-3.10;99.90;;;;;;4917466;29;19933;-84
2022/03/03 00:03:57;;;;;;;;;;;-3.10;99.90;;;;;;4915978;29;20009;-84
2022/03/03 00:06:23;;;;;;;;;;;-3.10;99.90;;;;;;4916313;29;20126;-86
2022/03/03 00:08:49;;;;;;;;;;;-3.20;99.90;;;;;;4915797;29;20756;-82
2022/03/03 00:11:14;;;;;;;;;;;-3.20;99.90;;;;;;4915789;29;20017;-84
2022/03/03 00:13:40;;;;;;;;;;;-3.20;99.90;;;;;;4931642;29;20434;-82
2022/03/03 00:16:07;;;;;;;;;;;-3.30;99.90;;;;;;4932074;29;19962;-85
2022/03/03 00:18:33;;;;;;;;;;;-3.20;99.90;;;;;;4931800;29;19914;-84
2022/03/03 00:20:59;;;;;;;;;;;-3.30;99.90;;;;;;4930867;29;19911;-82
2022/03/03 00:23:25;;;;;;;;;;;-3.30;99.90;;;;;;4932862;29;20825;-86
2022/03/03 00:25:50;;;;;;;;;;;-3.20;99.90;;;;;;4917182;29;19918;-84
2022/03/03 00:28:16;;;;;;;;;;;-3.20;99.90;;;;;;4932628;29;25159;-85
2022/03/03 00:30:42;;;;;;;;;;;-3.20;99.90;;;;;;4930375;29;20053;-86
2022/03/03 00:33:07;;;;;;;;;;;-3.10;99.90;;;;;;4933335;29;20490;-85
2022/03/03 00:35:33;;;;;;;;;;;-3.00;99.90;;;;;;4920112;28;20034;-84
2022/03/03 00:38:00;;;;;;;;;;;-3.00;99.90;;;;;;4962298;28;19939;-87
2022/03/03 00:40:38;;;;;;;;;;;-3.00;99.90;;;;;;4938132;29;19915;-84
2022/03/03 00:43:06;;;;;;;;;;;-2.90;99.90;;;;;;4929456;29;20284;-85
2022/03/03 00:45:37;;;;;;;;;;;-2.90;99.90;;;;;;4935923;29;20013;-84
2022/03/03 00:48:03;;;;;;;;;;;-2.90;99.90;;;;;;4920977;29;19915;-86
2022/03/03 00:50:29;;;;;;;;;;;-2.90;99.90;;;;;;4935004;29;19915;-84
2022/03/03 00:52:55;;;;;;;;;;;-3.00;99.90;;;;;;4919694;29;20525;-86
2022/03/03 00:55:20;;;;;;;;;;;-2.90;99.90;;;;;;4934896;29;19915;-81
2022/03/03 00:57:46;;;;;;;;;;;-2.90;99.90;;;;;;4918314;29;19919;-86
2022/03/03 01:00:12;;;;;;;;;;;-2.80;99.90;;;;;;4919740;29;19922;-85
2022/03/03 01:02:38;;;;;;;;;;;-2.80;99.90;;;;;;4921516;29;19942;-83
2022/03/03 01:05:05;;;;;;;;;;;-2.70;99.90;;;;;;4938315;29;19918;-84
2022/03/03 01:07:31;;;;;;;;;;;-2.60;99.90;;;;;;4920896;29;20050;-84
2022/03/03 01:09:57;;;;;;;;;;;-2.50;99.90;;;;;;4953373;29;19950;-83
2022/03/03 01:12:23;;;;;;;;;;;-2.50;99.90;;;;;;4922247;29;19911;-84
2022/03/03 01:14:49;;;;;;;;;;;-2.60;99.90;;;;;;4941940;29;19921;-82
2022/03/03 01:17:15;;;;;;;;;;;-2.70;99.90;;;;;;4925570;29;19919;-84
2022/03/03 01:19:41;;;;;;;;;;;-2.70;99.90;;;;;;4926832;29;19946;-82
2022/03/03 01:22:06;;;;;;;;;;;-2.80;99.90;;;;;;4930607;29;20097;-83
2022/03/03 01:24:32;;;;;;;;;;;-2.00;99.90;;;;;;4948326;29;19939;-82
2022/03/03 01:26:58;;;;;;;;;;;-2.80;99.90;;;;;;4949531;29;19915;-83
2022/03/03 01:29:24;;;;;;;;;;;-2.90;99.90;;;;;;4924065;29;19958;-83
2022/03/03 01:31:59;;;;;;;;;;;-2.90;99.90;;;;;;4939177;29;19910;-85
2022/03/03 01:34:24;;;;;;;;;;;-3.00;99.90;;;;;;4923902;29;19986;-83
2022/03/03 01:36:50;;;;;;;;;;;-3.00;99.90;;;;;;4922232;29;19923;-82
2022/03/03 01:39:22;;;;;;;;;;;-3.00;99.90;;;;;;4921483;29;20055;-85
2022/03/03 01:41:47;;;;;;;;;;;-3.00;99.90;;;;;;4952304;29;20001;-84
2022/03/03 01:44:13;;;;;;;;;;;-2.90;99.90;;;;;;4934475;29;19954;-85
2022/03/03 01:46:52;;;;;;;;;;;-3.00;99.90;;;;;;4920913;29;19915;-82
2022/03/03 01:49:18;;;;;;;;;;;-2.90;99.90;;;;;;4953456;29;19915;-84
2022/03/03 01:51:43;;;;;;;;;;;-2.90;99.90;;;;;;4922529;29;19922;-83
2022/03/03 01:54:09;;;;;;;;;;;-2.80;99.90;;;;;;4938051;29;19911;-85
2022/03/03 01:56:35;;;;;;;;;;;-2.90;99.90;;;;;;4922342;29;20002;-83
2022/03/03 01:59:01;;;;;;;;;;;-3.00;99.90;;;;;;4923901;29;19954;-85
2022/03/03 02:01:26;;;;;;;;;;;-3.00;99.90;;;;;;4939201;29;19922;-83
2022/03/03 02:03:52;;;;;;;;;;;-3.10;99.90;;;;;;4925296;29;19923;-84
2022/03/03 02:06:18;;;;;;;;;;;-3.10;99.90;;;;;;4922249;29;20056;-83
2022/03/03 02:08:43;;;;;;;;;;;-3.00;99.90;;;;;;4922611;29;19915;-83
2022/03/03 02:11:10;;;;;;;;;;;-3.10;99.90;;;;;;4921943;29;20049;-85
2022/03/03 02:13:36;;;;;;;;;;;-2.90;99.90;;;;;;4921248;29;19918;-84
2022/03/03 02:16:01;;;;;;;;;;;-2.80;99.90;;;;;;4936858;29;24078;-82
2022/03/03 02:18:27;;;;;;;;;;;-2.70;99.90;;;;;;4936087;29;19975;-84
2022/03/03 02:20:53;;;;;;;;;;;-2.70;99.90;;;;;;4921967;29;19915;-85
2022/03/03 02:23:19;;;;;;;;;;;-2.60;99.90;;;;;;4937681;29;19919;-84
2022/03/03 02:25:45;;;;;;;;;;;-2.60;99.90;;;;;;4938386;29;19911;-85
2022/03/03 02:28:12;;;;;;;;;;;-2.50;99.90;;;;;;4921801;29;19919;-86
2022/03/03 02:30:37;;;;;;;;;;;-2.50;99.90;;;;;;4952293;29;19914;-83
2022/03/03 02:33:03;;;;;;;;;;;-2.40;99.90;;;;;;4955144;29;19911;-83
2022/03/03 02:35:29;;;;;;;;;;;-2.40;99.90;;;;;;4958883;29;19911;-83
2022/03/03 02:37:55;;;;;;;;;;;-2.40;99.90;;;;;;4937312;29;19990;-84
2022/03/03 02:40:20;;;;;;;;;;;-2.40;99.90;;;;;;4936470;29;19919;-86
2022/03/03 02:42:47;;;;;;;;;;;-2.50;99.90;;;;;;4953187;29;20368;-87
2022/03/03 02:45:13;;;;;;;;;;;-2.40;99.90;;;;;;4952510;29;20049;-89
2022/03/03 02:47:40;;;;;;;;;;;-2.30;99.90;;;;;;4921706;29;20420;-84
2022/03/03 02:50:06;;;;;;;;;;;-2.20;99.90;;;;;;4953486;29;19915;-86
2022/03/03 02:52:31;;;;;;;;;;;-2.30;99.90;;;;;;4939659;29;20060;-85
2022/03/03 02:54:57;;;;;;;;;;;-2.20;99.90;;;;;;4938246;29;24090;-85
2022/03/03 02:57:56;;;;;;;;;;;-2.20;99.90;;;;;;4921524;29;20050;-84
2022/03/03 03:00:14;;;;;;;;;;;-2.30;99.90;;;;;;4952239;29;20339;-85
2022/03/03 03:02:40;;;;;;;;;;;-2.30;99.90;;;;;;4936993;29;19962;-83
2022/03/03 03:05:06;;;;;;;;;;;-2.20;99.90;;;;;;4937560;29;19911;-85
2022/03/03 03:07:32;;;;;;;;;;;-2.20;99.90;;;;;;4950487;29;19942;-83
2022/03/03 03:09:58;;;;;;;;;;;-2.20;99.90;;;;;;4935425;29;20053;-84
2022/03/03 03:12:23;;;;;;;;;;;-2.20;99.90;;;;;;4935654;29;19966;-86
2022/03/03 03:14:49;;;;;;;;;;;-2.00;99.90;;;;;;4935603;29;19918;-84
2022/03/03 03:17:15;;;;;;;;;;;-1.90;99.90;;;;;;4952349;29;20415;-86
2022/03/03 03:19:42;;;;;;;;;;;-1.90;99.90;;;;;;4952987;29;19922;-82
2022/03/03 03:22:07;;;;;;;;;;;-1.90;99.90;;;;;;4935207;29;19907;-82
2022/03/03 03:24:33;;;;;;;;;;;-1.90;99.90;;;;;;4920907;29;19946;-88
2022/03/03 03:26:59;;;;;;;;;;;-1.80;99.90;;;;;;4935312;29;19915;-85
2022/03/03 03:29:24;;;;;;;;;;;-1.70;99.90;;;;;;4951425;29;20392;-83
2022/03/03 03:31:50;;;;;;;;;;;-1.80;99.90;;;;;;4921950;29;19986;-84
2022/03/03 03:34:16;;;;;;;;;;;-1.80;99.90;;;;;;4957241;29;19949;-83
2022/03/03 03:36:41;;;;;;;;;;;-1.90;99.90;;;;;;4950860;29;19919;-83
2022/03/03 03:39:07;;;;;;;;;;;-2.00;99.90;;;;;;4964828;28;19919;-82
2022/03/03 03:41:32;;;;;;;;;;;-2.10;99.90;;;;;;4938870;29;19911;-83
2022/03/03 03:43:58;;;;;;;;;;;-2.30;99.90;;;;;;4906700;29;19982;-85
2022/03/03 03:46:24;;;;;;;;;;;-2.40;99.90;;;;;;4954765;29;19969;-83
2022/03/03 03:48:49;;;;;;;;;;;-2.50;99.90;;;;;;4938268;29;19922;-81
2022/03/03 03:51:16;;;;;;;;;;;-2.40;99.90;;;;;;4938395;29;19919;-82
2022/03/03 03:53:41;;;;;;;;;;;-2.30;99.90;;;;;;4938123;29;19982;-82
2022/03/03 03:56:07;;;;;;;;;;;-2.40;99.90;;;;;;4925677;29;19963;-81
2022/03/03 03:58:33;;;;;;;;;;;-2.50;99.90;;;;;;4938758;29;20005;-86
2022/03/03 04:00:59;;;;;;;;;;;-2.60;99.90;;;;;;4938066;29;19915;-82
2022/03/03 04:03:25;;;;;;;;;;;-2.80;99.90;;;;;;4922945;29;19918;-85
2022/03/03 04:05:51;;;;;;;;;;;-2.90;99.90;;;;;;4938541;29;19922;-82
2022/03/03 04:08:18;;;;;;;;;;;-3.00;99.90;;;;;;4927692;29;19915;-82
2022/03/03 04:10:44;;;;;;;;;;;-3.00;99.90;;;;;;4941582;29;19915;-82
2022/03/03 04:13:10;;;;;;;;;;;-3.10;99.90;;;;;;4941955;29;20447;-86
2022/03/03 04:15:36;;;;;;;;;;;-3.10;99.90;;;;;;4941732;29;19958;-83
2022/03/03 04:18:01;;;;;;;;;;;-3.20;99.90;;;;;;4941276;29;20049;-81
2022/03/03 04:20:27;;;;;;;;;;;-3.20;99.90;;;;;;4941923;29;19907;-85
2022/03/03 04:22:53;;;;;;;;;;;-3.20;99.90;;;;;;4959139;29;19918;-85
2022/03/03 04:25:19;;;;;;;;;;;-3.20;99.90;;;;;;4940780;29;19911;-83
2022/03/03 04:27:45;;;;;;;;;;;-3.20;99.90;;;;;;4957916;29;25070;-83
2022/03/03 04:30:11;;;;;;;;;;;-3.20;99.90;;;;;;4942780;29;19923;-83
2022/03/03 04:32:40;;;;;;;;;;;-3.30;99.90;;;;;;4942203;29;19915;-84
2022/03/03 04:35:06;;;;;;;;;;;-3.40;99.90;;;;;;4942306;29;19918;-82
2022/03/03 04:37:32;;;;;;;;;;;-3.50;99.90;;;;;;4942548;29;19915;-82
2022/03/03 04:39:57;;;;;;;;;;;-3.60;99.90;;;;;;4942933;29;20375;-82
2022/03/03 04:42:23;;;;;;;;;;;-3.70;99.90;;;;;;4941710;29;19910;-83
2022/03/03 04:44:48;;;;;;;;;;;-3.60;99.90;;;;;;4926256;29;19911;-83
2022/03/03 04:47:14;;;;;;;;;;;-3.70;99.90;;;;;;4958149;29;19921;-85
2022/03/03 04:49:40;;;;;;;;;;;-3.70;99.90;;;;;;4908961;29;19966;-87
2022/03/03 04:52:06;;;;;;;;;;;-3.60;99.90;;;;;;4940638;29;19911;-83
2022/03/03 04:54:32;;;;;;;;;;;-3.40;99.90;;;;;;4941135;29;19918;-84
2022/03/03 04:56:57;;;;;;;;;;;-3.30;99.90;;;;;;4957524;29;19914;-85
2022/03/03 04:59:24;;;;;;;;;;;-3.40;99.90;;;;;;4940145;29;20362;-83
2022/03/03 05:01:50;;;;;;;;;;;-3.40;99.90;;;;;;4939338;29;19915;-85
2022/03/03 05:04:17;;;;;;;;;;;-3.40;99.90;;;;;;4922308;29;20370;-85
2022/03/03 05:06:42;;;;;;;;;;;-3.30;99.90;;;;;;4937954;29;19963;-84
2022/03/03 05:09:08;;;;;;;;;;;-3.30;99.90;;;;;;4954736;29;20320;-85
2022/03/03 05:11:34;;;;;;;;;;;-3.30;99.90;;;;;;4938915;29;19911;-84
2022/03/03 05:13:59;;;;;;;;;;;-3.00;99.90;;;;;;4955601;29;19934;-82
2022/03/03 05:16:25;;;;;;;;;;;-2.90;99.90;;;;;;4927807;29;19918;-82
2022/03/03 05:18:50;;;;;;;;;;;-2.90;99.90;;;;;;4942622;29;19918;-82
2022/03/03 05:21:17;;;;;;;;;;;-2.90;99.90;;;;;;4944167;29;19915;-81
2022/03/03 05:23:43;;;;;;;;;;;-2.90;99.90;;;;;;4943654;29;19946;-82
2022/03/03 05:26:08;;;;;;;;;;;-2.90;99.90;;;;;;4944422;29;19917;-83
2022/03/03 05:28:34;;;;;;;;;;;-3.00;99.90;;;;;;4945133;29;19943;-83
2022/03/03 05:31:00;;;;;;;;;;;-3.10;99.90;;;;;;4960517;29;19919;-83
2022/03/03 05:33:27;;;;;;;;;;;-3.20;99.90;;;;;;4945781;29;19923;-86
2022/03/03 05:35:57;;;;;;;;;;;-3.30;99.90;;;;;;4950840;29;19918;-84
2022/03/03 05:38:24;;;;;;;;;;;-3.40;99.90;;;;;;4918641;29;19915;-83
2022/03/03 05:40:51;;;;;;;;;;;-3.40;99.90;;;;;;4936495;29;19911;-86
2022/03/03 05:43:17;;;;;;;;;;;-3.50;99.90;;;;;;4934459;29;19918;-88
2022/03/03 05:45:43;;;;;;;;;;;-3.50;99.90;;;;;;4934700;29;19911;-85
2022/03/03 05:48:09;;;;;;;;;;;-3.60;99.90;;;;;;4917370;29;19911;-83
2022/03/03 05:50:34;;;;;;;;;;;-3.60;99.90;;;;;;4933113;29;19911;-85
2022/03/03 05:53:01;;;;;;;;;;;-3.60;99.90;;;;;;4933624;29;19922;-85
2022/03/03 05:55:28;;;;;;;;;;;-3.60;99.90;;;;;;4934097;29;19918;-85
2022/03/03 05:57:56;;;;;;;;;;;-3.70;99.90;;;;;;4932309;29;19926;-86
2022/03/03 06:00:22;;;;;;;;;;;-3.70;99.90;;;;;;4931860;29;20377;-85
2022/03/03 06:02:52;;;;;;;;;;;-3.70;99.90;;;;;;4934114;29;20062;-84
2022/03/03 06:05:25;;;;;;;;;;;-3.70;99.90;;;;;;4936529;29;19918;-85
2022/03/03 06:07:53;;;;;;;;;;;-3.60;99.90;;;;;;4934570;29;19926;-86
2022/03/03 06:10:21;;;;;;;;;;;-3.60;99.90;;;;;;4932278;29;19911;-85
2022/03/03 06:12:48;;;;;;;;;;;-3.70;99.90;;;;;;4931584;29;20272;-83
2022/03/03 06:15:14;;;;;;;;;;;-3.80;99.90;;;;;;4931572;29;19911;-85
2022/03/03 06:17:44;;;;;;;;;;;-3.80;99.90;;;;;;4915277;29;20017;-85
2022/03/03 06:20:11;;;;;;;;;;;-3.80;99.90;;;;;;4932228;29;20052;-85
2022/03/03 06:22:37;;;;;;;;;;;-3.90;99.90;;;;;;4931622;29;19947;-86
2022/03/03 06:25:05;;;;;;;;;;;-3.80;99.90;;;;;;4930946;29;19954;-85
2022/03/03 06:27:31;;;;;;;;;;;-3.80;99.90;;;;;;4931671;29;19977;-86
2022/03/03 06:29:57;;;;;;;;;;;-3.70;99.90;;;;;;4946813;28;19962;-83
2022/03/03 06:32:23;;;;;;;;;;;-3.50;99.90;;;;;;4937571;29;19895;-85
2022/03/03 06:34:48;;;;;;;;;;;-3.40;99.90;;;;;;4952194;29;19986;-84
2022/03/03 06:37:14;;;;;;;;;;;-3.30;99.90;;;;;;4945720;28;19927;-86
2022/03/03 06:39:39;;;;;;;;;;;-3.20;99.90;;;;;;4932393;29;19915;-83
2022/03/03 06:42:05;;;;;;;;;;;-3.00;99.90;;;;;;4931692;29;19922;-87
2022/03/03 06:44:31;;;;;;;;;;;-2.90;99.90;;;;;;4932115;29;19907;-88
2022/03/03 06:46:57;;;;;;;;;;;-2.90;99.90;;;;;;4933676;29;19915;-85
2022/03/03 06:49:23;;;;;;;;;;;-2.80;99.90;;;;;;4932106;29;20358;-86
2022/03/03 06:51:49;;;;;;;;;;;-2.70;99.90;;;;;;4930153;29;20005;-86
2022/03/03 06:54:19;;;;;;;;;;;-2.60;99.90;;;;;;4922411;29;20395;-82
2022/03/03 06:56:55;;;;;;;;;;;-2.50;99.90;;;;;;4931228;29;19970;-87
2022/03/03 06:59:24;;;;;;;;;;;-2.50;99.90;;;;;;4947259;29;24111;-85
2022/03/03 07:01:50;;;;;;;;;;;-2.40;99.90;;;;;;4930983;29;20408;-83
2022/03/03 07:04:18;;;;;;;;;;;-2.30;99.90;;;;;;4948362;29;19911;-84
2022/03/03 07:06:44;;;;;;;;;;;-2.20;99.90;;;;;;4931788;29;19954;-83
2022/03/03 07:09:11;;;;;;;;;;;-2.10;99.90;;;;;;4947617;29;20029;-87
2022/03/03 07:11:38;;;;;;;;;;;-2.00;99.90;;;;;;4933178;29;20049;-87
2022/03/03 07:14:04;;;;;;;;;;;-1.80;99.90;;;;;;4950652;29;19907;-86
2022/03/03 07:16:43;;;;;;;;;;;-1.70;99.90;;;;;;4950743;29;20607;-83
2022/03/03 07:19:18;;;;;;;;;;;-1.60;99.90;;;;;;4949155;29;19918;-85
2022/03/03 07:21:54;;;;;;;;;;;-1.60;99.90;;;;;;4916778;29;20001;-85
2022/03/03 07:24:26;;;;;;;;;;;-1.50;99.90;;;;;;4951220;29;19911;-82
2022/03/03 07:26:53;;;;;;;;;;;-1.50;99.90;;;;;;4953980;29;19971;-83
2022/03/03 07:29:18;;;;;;;;;;;-1.30;99.90;;;;;;4922976;29;19939;-82
2022/03/03 07:31:50;;;;;;;;;;;-1.20;99.90;;;;;;4940123;29;20439;-82
2022/03/03 07:34:20;;;;;;;;;;;-1.00;99.90;;;;;;4933237;29;19921;-81
2022/03/03 07:36:50;;;;;;;;;;;-0.80;99.90;;;;;;4916529;29;19946;-81
2022/03/03 07:39:17;;;;;;;;;;;-0.60;99.90;;;;;;4924488;29;19914;-82
2022/03/03 07:41:43;;;;;;;;;;;-0.40;99.90;;;;;;4955402;28;20476;-86
2022/03/03 07:44:09;;;;;;;;;;;-0.20;99.90;;;;;;4955597;29;19918;-83
2022/03/03 07:46:35;;;;;;;;;;;0.00;99.90;;;;;;4940595;29;19914;-83
2022/03/03 07:49:02;;;;;;;;;;;0.20;99.90;;;;;;4959254;29;20051;-83
2022/03/03 07:51:28;;;;;;;;;;;0.30;99.90;;;;;;4954205;29;20058;-84
2022/03/03 07:53:54;;;;;;;;;;;0.40;99.90;;;;;;4938798;29;20053;-82
2022/03/03 07:56:39;;;;;;;;;;;0.50;99.90;;;;;;4954171;29;19911;-84
2022/03/03 07:59:07;;;;;;;;;;;0.50;99.90;;;;;;4919845;29;19962;-84
2022/03/03 08:01:34;;;;;;;;;;;0.50;99.90;;;;;;4921722;29;20363;-85
2022/03/03 08:04:02;;;;;;;;;;;0.60;99.90;;;;;;4921404;29;20041;-83
2022/03/03 08:06:29;;;;;;;;;;;0.70;99.90;;;;;;4947891;29;20071;-84
2022/03/03 08:08:55;;;;;;;;;;;0.90;99.90;;;;;;4915053;29;20042;-84
2022/03/03 08:11:22;;;;;;;;;;;1.20;99.90;;;;;;4947519;29;19926;-84
2022/03/03 08:13:51;;;;;;;;;;;1.50;99.90;;;;;;4932998;29;19911;-84
2022/03/03 08:16:17;;;;;;;;;;;1.80;99.90;;;;;;4918620;29;19915;-83
2022/03/03 08:18:43;;;;;;;;;;;2.00;99.90;;;;;;4913115;29;20028;-84
2022/03/03 08:21:09;;;;;;;;;;;2.10;99.90;;;;;;4923820;29;20050;-85
2022/03/03 08:23:34;;;;;;;;;;;2.00;99.90;;;;;;4916223;29;20627;-85
2022/03/03 08:26:00;;;;;;;;;;;2.20;99.90;;;;;;4915443;29;19925;-85
2022/03/03 08:28:27;;;;;;;;;;;2.20;99.90;;;;;;4914385;29;20057;-84
2022/03/03 08:31:03;;;;;;;;;;;2.20;99.90;;;;;;4915234;29;20094;-84
2022/03/03 08:33:39;;;;;;;;;;;2.20;99.90;;;;;;4945456;29;19925;-84
2022/03/03 08:36:08;;;;;;;;;;;2.30;99.90;;;;;;4915283;29;20056;-86
2022/03/03 08:38:39;;;;;;;;;;;2.30;99.90;;;;;;4930412;29;20056;-85
2022/03/03 08:41:05;;;;;;;;;;;2.40;99.90;;;;;;4930576;29;19911;-86
2022/03/03 08:43:31;;;;;;;;;;;2.40;99.90;;;;;;4943870;29;19938;-85
2022/03/03 08:46:02;;;;;;;;;;;2.60;99.90;;;;;;4950236;29;19914;-85
2022/03/03 08:48:30;;;;;;;;;;;2.60;99.90;;;;;;4933173;29;19974;-84
2022/03/03 08:50:56;;;;;;;;;;;2.80;99.90;;;;;;4915919;29;20292;-84
2022/03/03 08:53:22;;;;;;;;;;;2.80;99.90;;;;;;4934122;29;20006;-83
2022/03/03 08:55:47;;;;;;;;;;;2.90;99.90;;;;;;4915943;29;20042;-84
2022/03/03 08:58:14;;;;;;;;;;;3.10;99.90;;;;;;4919245;29;19919;-84
2022/03/03 09:00:40;;;;;;;;;;;3.20;99.90;;;;;;4918878;29;20038;-85
2022/03/03 09:03:06;;;;;;;;;;;3.30;99.90;;;;;;4919560;29;20047;-85
2022/03/03 09:05:32;;;;;;;;;;;3.40;99.90;;;;;;4918591;29;20140;-86
2022/03/03 09:07:57;;;;;;;;;;;3.50;99.90;;;;;;4943086;29;19926;-85
2022/03/03 09:10:23;;;;;;;;;;;3.60;99.90;;;;;;4949311;29;20279;-85
2022/03/03 09:12:50;;;;;;;;;;;3.70;99.90;;;;;;4917595;29;19986;-85
2022/03/03 09:15:16;;;;;;;;;;;3.70;99.90;;;;;;4917098;29;19971;-84
2022/03/03 09:17:42;;;;;;;;;;;3.80;99.90;;;;;;4916906;29;20397;-85
2022/03/03 09:20:11;;;;;;;;;;;4.00;99.90;;;;;;4906539;29;19919;-85
2022/03/03 09:22:37;;;;;;;;;;;4.00;99.90;;;;;;4916952;29;20502;-85
2022/03/03 09:25:03;;;;;;;;;;;4.00;99.90;;;;;;4917827;29;20045;-84
2022/03/03 09:27:29;;;;;;;;;;;4.10;99.90;;;;;;4917806;29;19911;-85
2022/03/03 09:29:56;;;;;;;;;;;4.20;99.90;;;;;;4920089;29;19922;-87
2022/03/03 09:32:21;;;;;;;;;;;4.40;99.90;;;;;;4951359;29;20387;-86
2022/03/03 09:34:47;;;;;;;;;;;5.00;99.90;;;;;;4922160;29;19914;-84
2022/03/03 09:37:13;;;;;;;;;;;5.70;99.90;;;;;;4917788;29;19919;-84
2022/03/03 09:39:39;;;;;;;;;;;6.50;99.90;;;;;;4918918;29;20516;-85
2022/03/03 09:42:05;;;;;;;;;;;7.60;99.90;;;;;;4917035;29;20047;-85
2022/03/03 09:44:30;;;;;;;;;;;8.60;99.60;;;;;;4925443;29;19951;-86
2022/03/03 09:46:56;;;;;;;;;;;9.40;96.30;;;;;;4916174;29;19911;-83
2022/03/03 09:49:22;;;;;;;;;;;9.80;93.00;;;;;;4916575;29;20108;-85
2022/03/03 09:51:48;;;;;;;;;;;10.10;91.00;;;;;;4932340;29;19915;-86
2022/03/03 09:54:14;;;;;;;;;;;11.10;86.80;;;;;;4915881;29;20045;-83
2022/03/03 09:56:40;;;;;;;;;;;11.90;80.20;;;;;;4932173;29;19918;-83
2022/03/03 09:59:07;;;;;;;;;;;12.40;76.60;;;;;;4917884;29;20042;-83
2022/03/03 10:01:33;;;;;;;;;;;11.60;79.10;;;;;;4918439;29;19915;-86
2022/03/03 10:04:17;;;;;;;;;;;11.30;80.00;;;;;;4916152;29;20347;-86
2022/03/03 10:06:43;;;;;;;;;;;12.00;82.10;;;;;;4947987;29;19958;-85
2022/03/03 10:09:09;;;;;;;;;;;12.30;80.70;;;;;;4916697;29;19936;-85
2022/03/03 10:11:38;;;;;;;;;;;12.60;74.70;;;;;;4920088;29;19974;-85
2022/03/03 10:14:04;;;;;;;;;;;11.60;76.60;;;;;;4926980;29;19918;-85
2022/03/03 10:16:31;;;;;;;;;;;11.60;78.70;;;;;;4958720;29;19915;-84
2022/03/03 10:18:59;;;;;;;;;;;11.50;79.20;;;;;;4926011;29;19942;-85
2022/03/03 10:21:27;;;;;;;;;;;11.40;78.30;;;;;;4927748;29;20410;-83
2022/03/03 10:23:52;;;;;;;;;;;11.30;78.40;;;;;;4925595;29;20526;-84
2022/03/03 10:26:18;;;;;;;;;;;11.40;78.20;;;;;;4922411;29;20478;-84
2022/03/03 10:28:47;;;;;;;;;;;11.10;79.80;;;;;;4943061;29;19919;-84
2022/03/03 10:31:15;;;;;;;;;;;10.90;78.20;;;;;;4917627;29;19915;-85
2022/03/03 10:33:45;;;;;;;;;;;11.50;77.20;;;;;;4916402;29;19954;-83
2022/03/03 10:36:19;;;;;;;;;;;11.40;75.80;;;;;;4909315;29;20069;-84
2022/03/03 10:38:48;;;;;;;;;;;11.00;77.20;;;;;;4902619;29;20152;-83
2022/03/03 10:41:26;;;;;;;;;;;11.00;75.20;;;;;;4922204;29;20056;-84
2022/03/03 10:43:51;;;;;;;;;;;10.60;75.60;;;;;;4944195;29;20698;-84
2022/03/03 10:46:17;;;;;;;;;;;10.90;76.40;;;;;;4945846;29;20133;-84
2022/03/03 10:48:43;;;;;;;;;;;11.20;75.50;;;;;;4915715;29;20458;-84
2022/03/03 10:51:11;;;;;;;;;;;11.80;74.60;;;;;;4913449;29;19911;-84
2022/03/03 10:53:36;;;;;;;;;;;11.80;72.90;;;;;;4913689;29;20009;-86
2022/03/03 10:56:06;;;;;;;;;;;12.20;73.20;;;;;;4926620;29;20026;-84
2022/03/03 10:58:49;;;;;;;;;;;12.10;71.60;;;;;;4942016;29;19945;-86
2022/03/03 11:01:16;;;;;;;;;;;11.70;70.00;;;;;;4944292;29;20295;-84
2022/03/03 11:03:44;;;;;;;;;;;11.50;71.40;;;;;;4943984;29;19927;-85
2022/03/03 11:06:11;;;;;;;;;;;11.30;71.80;;;;;;4925898;29;19911;-86
2022/03/03 11:08:36;;;;;;;;;;;10.80;72.20;;;;;;4944342;29;19911;-84
2022/03/03 11:11:03;;;;;;;;;;;10.50;73.30;;;;;;4914902;29;19922;-85
2022/03/03 11:13:28;;;;;;;;;;;10.80;73.30;;;;;;4929003;29;19927;-85
2022/03/03 11:15:55;;;;;;;;;;;11.50;71.00;;;;;;4928215;29;20049;-86
2022/03/03 11:18:21;;;;;;;;;;;11.80;71.50;;;;;;4944659;29;20100;-85
2022/03/03 11:20:47;;;;;;;;;;;12.40;71.20;;;;;;4908622;29;20290;-87
2022/03/03 11:23:13;;;;;;;;;;;12.90;68.70;;;;;;4926916;29;19958;-86
2022/03/03 11:25:38;;;;;;;;;;;13.30;67.30;;;;;;4928485;29;19951;-86
2022/03/03 11:28:04;;;;;;;;;;;12.70;65.10;;;;;;4945028;29;20586;-85
2022/03/03 11:30:30;;;;;;;;;;;12.60;65.20;;;;;;4929500;29;20053;-86
2022/03/03 11:33:15;;;;;;;;;;;12.70;65.90;;;;;;4929627;29;19998;-85
2022/03/03 11:35:50;;;;;;;;;;;13.00;65.40;;;;;;4929081;29;20054;-85
2022/03/03 11:38:16;;;;;;;;;;;13.10;66.80;;;;;;4937765;29;20403;-85
2022/03/03 11:40:52;;;;;;;;;;;12.70;64.10;;;;;;4929975;29;19911;-86
2022/03/03 11:43:18;;;;;;;;;;;12.40;67.10;;;;;;4941747;29;20045;-85
2022/03/03 11:45:51;;;;;;;;;;;12.60;66.20;;;;;;4915351;29;19926;-86
2022/03/03 11:48:19;;;;;;;;;;;13.00;66.50;;;;;;4912920;29;19923;-85
2022/03/03 11:50:45;;;;;;;;;;;12.40;64.50;;;;;;4914276;29;19914;-86
2022/03/03 11:53:10;;;;;;;;;;;12.20;66.80;;;;;;4929181;29;20064;-86
2022/03/03 11:55:41;;;;;;;;;;;12.70;66.40;;;;;;4935200;29;19957;-85
2022/03/03 11:58:07;;;;;;;;;;;12.20;65.10;;;;;;4926556;29;20418;-85
2022/03/03 12:00:34;;;;;;;;;;;12.90;66.00;;;;;;4929122;29;19911;-85
2022/03/03 12:03:01;;;;;;;;;;;13.50;62.90;;;;;;4929321;29;20052;-85
2022/03/03 12:05:27;;;;;;;;;;;13.50;62.50;;;;;;4928719;29;20347;-86
2022/03/03 12:07:59;;;;;;;;;;;13.50;60.80;;;;;;4943807;29;20084;-85
2022/03/03 12:10:25;;;;;;;;;;;13.00;61.10;;;;;;4920330;29;20379;-85
2022/03/03 12:12:53;;;;;;;;;;;13.80;61.00;;;;;;4912981;29;19975;-85
2022/03/03 12:15:18;;;;;;;;;;;13.00;59.30;;;;;;4912724;29;20053;-87
2022/03/03 12:17:58;;;;;;;;;;;13.30;61.10;;;;;;4928122;29;19926;-86
2022/03/03 12:20:24;;;;;;;;;;;13.20;60.90;;;;;;4919437;29;20068;-85
2022/03/03 12:23:08;;;;;;;;;;;13.50;61.50;;;;;;4943221;29;20053;-87
2022/03/03 12:25:57;;;;;;;;;;;13.30;60.10;;;;;;4928281;29;20065;-85
2022/03/03 12:28:34;;;;;;;;;;;13.40;60.80;;;;;;4921418;29;19926;-85
2022/03/03 12:31:00;;;;;;;;;;;12.80;59.50;;;;;;4946823;29;19911;-86
2022/03/03 12:33:26;;;;;;;;;;;13.30;60.80;;;;;;4932196;29;19918;-85
2022/03/03 12:35:57;;;;;;;;;;;13.40;59.50;;;;;;4932815;29;20026;-86
2022/03/03 12:38:33;;;;;;;;;;;13.30;59.70;;;;;;4931984;29;20474;-86
2022/03/03 12:40:59;;;;;;;;;;;13.60;58.70;;;;;;4915601;29;20053;-86
2022/03/03 12:43:25;;;;;;;;;;;13.40;59.40;;;;;;4930184;29;19923;-87
2022/03/03 12:45:50;;;;;;;;;;;13.60;58.20;;;;;;4916411;29;20060;-85
2022/03/03 12:48:27;;;;;;;;;;;13.50;56.60;;;;;;4930991;29;19938;-85
2022/03/03 12:50:57;;;;;;;;;;;13.40;53.40;;;;;;4927078;29;19922;-86
2022/03/03 12:53:23;;;;;;;;;;;13.00;54.60;;;;;;4915468;29;20056;-84
2022/03/03 12:55:49;;;;;;;;;;;12.90;52.70;;;;;;4932074;29;20380;-86
2022/03/03 12:58:17;;;;;;;;;;;12.90;52.30;;;;;;4915390;29;19970;-86
2022/03/03 13:00:44;;;;;;;;;;;12.80;51.80;;;;;;4916264;29;19921;-87
2022/03/03 13:03:10;;;;;;;;;;;12.10;50.70;;;;;;4915285;29;19919;-87
2022/03/03 13:05:36;;;;;;;;;;;12.00;52.40;;;;;;4915491;29;19911;-86
2022/03/03 13:08:03;;;;;;;;;;;11.90;52.90;;;;;;4946389;29;20292;-84
2022/03/03 13:10:30;;;;;;;;;;;11.70;53.10;;;;;;4930992;29;19970;-86
2022/03/03 13:12:56;;;;;;;;;;;11.40;53.40;;;;;;4929363;29;19923;-85
2022/03/03 13:15:36;;;;;;;;;;;11.10;54.10;;;;;;4916657;29;20132;-86
2022/03/03 13:18:05;;;;;;;;;;;10.90;54.80;;;;;;4915989;29;19927;-86
2022/03/03 13:20:33;;;;;;;;;;;10.80;52.50;;;;;;4929857;29;20399;-84
2022/03/03 13:22:59;;;;;;;;;;;11.00;52.70;;;;;;4915836;29;19911;-86
2022/03/03 13:25:26;;;;;;;;;;;11.00;52.30;;;;;;4916313;29;19942;-85
2022/03/03 13:27:51;;;;;;;;;;;10.80;54.20;;;;;;4915566;29;19915;-85
2022/03/03 13:30:17;;;;;;;;;;;10.20;51.70;;;;;;4932663;29;19915;-86
2022/03/03 13:32:44;;;;;;;;;;;9.60;51.50;;;;;;4944115;29;20005;-86
2022/03/03 13:35:10;;;;;;;;;;;9.10;53.10;;;;;;4941905;29;19950;-85
2022/03/03 13:37:36;;;;;;;;;;;8.80;51.30;;;;;;4940239;29;19918;-86
2022/03/03 13:40:15;;;;;;;;;;;8.50;52.00;;;;;;4942000;29;20052;-87
2022/03/03 13:42:41;;;;;;;;;;;8.30;53.80;;;;;;4932827;29;19915;-86
2022/03/03 13:45:07;;;;;;;;;;;8.20;55.00;;;;;;4931844;29;19915;-86
2022/03/03 13:47:40;;;;;;;;;;;8.20;56.00;;;;;;4931551;29;20379;-87
2022/03/03 13:50:07;;;;;;;;;;;8.20;55.90;;;;;;4931982;29;20058;-86
2022/03/03 13:52:38;;;;;;;;;;;8.20;54.40;;;;;;4930285;29;19915;-86
2022/03/03 13:55:04;;;;;;;;;;;8.10;51.80;;;;;;4930481;29;19934;-84
2022/03/03 13:57:43;;;;;;;;;;;7.90;50.00;;;;;;4934769;29;20083;-87
2022/03/03 14:00:20;;;;;;;;;;;7.70;51.80;;;;;;4935740;29;20045;-84
2022/03/03 14:02:48;;;;;;;;;;;7.70;51.50;;;;;;4919957;29;20053;-87
2022/03/03 14:05:15;;;;;;;;;;;7.60;49.40;;;;;;4939072;29;19918;-88
2022/03/03 14:07:48;;;;;;;;;;;7.50;50.00;;;;;;4930435;29;20052;-86
2022/03/03 14:10:15;;;;;;;;;;;7.50;51.70;;;;;;4948016;29;20269;-86
2022/03/03 14:12:58;;;;;;;;;;;7.50;52.20;;;;;;4923778;29;20280;-87
2022/03/03 14:15:26;;;;;;;;;;;7.50;53.60;;;;;;4929462;29;19911;-85
2022/03/03 14:17:52;;;;;;;;;;;7.40;52.80;;;;;;4915875;29;20487;-88
2022/03/03 14:20:18;;;;;;;;;;;7.40;52.90;;;;;;4929310;29;19921;-87